Time;durP1;ratioP1;P1;durP2;ratioP2;P2;SDS_P1;SDS_P2;PMS_P1;PMS_P2;Temp;Humidity;BMP_temperature;BMP_pressure;BME280_temperature;BME280_humidity;BME280_pressure;Samples;Min_cycle;Max_cycle;Signal;HPM_P1;HPM_P2
2023/07/18 00:00:12;;;;;;;9.05;4.30;;;15.90;99.90;;;;;;4981047;28;20411;-65
2023/07/18 00:02:39;;;;;;;10.38;4.15;;;15.80;99.90;;;;;;5001785;28;20898;-65
2023/07/18 00:05:05;;;;;;;8.63;4.28;;;15.80;99.90;;;;;;4975132;28;20423;-65
2023/07/18 00:07:31;;;;;;;9.90;4.28;;;15.80;99.90;;;;;;5000026;28;20430;-66
2023/07/18 00:09:57;;;;;;;9.10;4.30;;;15.80;99.90;;;;;;4996515;28;20488;-65
2023/07/18 00:12:23;;;;;;;7.50;3.80;;;15.80;99.90;;;;;;4986419;28;20441;-65
2023/07/18 00:14:48;;;;;;;10.32;4.10;;;15.80;99.90;;;;;;4995815;28;20406;-65
2023/07/18 00:17:15;;;;;;;10.75;4.10;;;15.80;99.90;;;;;;4986538;28;20422;-65
2023/07/18 00:19:41;;;;;;;8.55;4.25;;;15.70;99.90;;;;;;4989871;28;20908;-65
2023/07/18 00:22:07;;;;;;;8.05;4.30;;;15.70;99.90;;;;;;4970453;28;20448;-65
2023/07/18 00:24:33;;;;;;;8.90;3.90;;;15.70;99.90;;;;;;4987014;28;20425;-65
2023/07/18 00:26:59;;;;;;;10.32;4.32;;;15.70;99.90;;;;;;4969250;28;20517;-65
2023/07/18 00:29:26;;;;;;;11.68;4.45;;;15.70;99.90;;;;;;4987143;28;20971;-65
2023/07/18 00:31:52;;;;;;;8.93;4.10;;;15.60;99.90;;;;;;4988259;28;20729;-65
2023/07/18 00:34:18;;;;;;;10.23;4.10;;;15.60;99.90;;;;;;4986210;28;20418;-65
2023/07/18 00:36:45;;;;;;;9.43;4.35;;;15.60;99.90;;;;;;4987912;28;20414;-65
2023/07/18 00:39:12;;;;;;;8.93;3.90;;;15.60;99.90;;;;;;4997383;28;20424;-65
2023/07/18 00:41:38;;;;;;;11.32;4.20;;;15.60;99.90;;;;;;4998261;28;20762;-65
2023/07/18 00:44:04;;;;;;;7.63;3.67;;;15.50;99.90;;;;;;4996671;28;20462;-65
2023/07/18 00:46:31;;;;;;;9.70;4.07;;;15.50;99.90;;;;;;4998069;28;20442;-65
2023/07/18 00:48:57;;;;;;;10.90;4.43;;;15.50;99.90;;;;;;4987565;28;20427;-65
2023/07/18 00:51:26;;;;;;;12.38;4.28;;;15.50;99.90;;;;;;4990509;28;20411;-65
2023/07/18 00:53:53;;;;;;;11.23;4.43;;;15.50;99.90;;;;;;4976932;28;20828;-65
2023/07/18 00:56:19;;;;;;;9.23;3.90;;;15.40;99.90;;;;;;4981915;28;20770;-65
2023/07/18 00:58:45;;;;;;;10.77;4.40;;;15.40;99.90;;;;;;4989274;28;20764;-65
2023/07/18 01:01:10;;;;;;;10.20;4.10;;;15.40;99.90;;;;;;4987144;28;20409;-65
2023/07/18 01:03:38;;;;;;;10.32;4.30;;;15.40;99.90;;;;;;4992301;28;20401;-65
2023/07/18 01:06:05;;;;;;;8.45;4.28;;;15.40;99.90;;;;;;5008502;28;20866;-65
2023/07/18 01:08:31;;;;;;;11.52;4.40;;;15.40;99.90;;;;;;4986886;28;20430;-65
2023/07/18 01:10:57;;;;;;;11.90;4.40;;;15.30;99.90;;;;;;4984311;28;20550;-65
2023/07/18 01:13:23;;;;;;;10.82;4.32;;;15.40;99.90;;;;;;4990769;28;20896;-65
2023/07/18 01:15:49;;;;;;;8.70;4.32;;;15.30;99.90;;;;;;4989020;28;20414;-65
2023/07/18 01:18:15;;;;;;;8.32;4.43;;;15.40;99.90;;;;;;4969187;28;20422;-65
2023/07/18 01:20:44;;;;;;;9.38;4.60;;;15.30;99.90;;;;;;4987237;28;20410;-65
2023/07/18 01:23:10;;;;;;;9.18;4.28;;;15.30;99.90;;;;;;4980443;28;20448;-65
2023/07/18 01:25:36;;;;;;;8.50;4.40;;;15.30;99.90;;;;;;4995557;28;20464;-65
2023/07/18 01:28:03;;;;;;;10.05;4.80;;;15.30;99.90;;;;;;4993546;28;20426;-65
2023/07/18 01:30:30;;;;;;;10.02;4.88;;;15.30;99.90;;;;;;4969438;28;20961;-65
2023/07/18 01:32:56;;;;;;;11.60;4.90;;;15.30;99.90;;;;;;4986950;28;20783;-65
2023/07/18 01:35:27;;;;;;;9.57;4.68;;;15.20;99.90;;;;;;4969336;28;20741;-65
2023/07/18 01:37:54;;;;;;;9.77;4.85;;;15.20;99.90;;;;;;4993509;28;20420;-65
2023/07/18 01:40:21;;;;;;;11.32;5.00;;;15.20;99.90;;;;;;4997187;28;20430;-65
2023/07/18 01:42:51;;;;;;;10.40;4.80;;;15.20;99.90;;;;;;4993545;28;20407;-65
2023/07/18 01:45:25;;;;;;;13.07;4.93;;;15.20;99.90;;;;;;4996506;28;20462;-65
2023/07/18 01:47:51;;;;;;;12.00;5.00;;;15.20;99.90;;;;;;4974048;28;20423;-65
2023/07/18 01:50:17;;;;;;;12.93;4.85;;;15.10;99.90;;;;;;4986848;28;20414;-65
2023/07/18 01:52:44;;;;;;;11.10;4.90;;;15.10;99.90;;;;;;4986496;28;20481;-65
2023/07/18 01:55:09;;;;;;;10.05;4.80;;;15.10;99.90;;;;;;4962885;28;20439;-65
2023/07/18 01:57:38;;;;;;;10.50;4.95;;;15.10;99.90;;;;;;4988166;28;20411;-65
2023/07/18 02:00:05;;;;;;;13.85;5.40;;;15.10;99.90;;;;;;4969385;28;20430;-65
2023/07/18 02:02:36;;;;;;;10.65;4.88;;;15.10;99.90;;;;;;4986919;28;20410;-65
2023/07/18 02:05:01;;;;;;;11.63;4.93;;;15.10;99.90;;;;;;4986635;28;20399;-65
2023/07/18 02:07:27;;;;;;;9.93;4.80;;;15.00;99.90;;;;;;4986533;28;20430;-65
2023/07/18 02:09:52;;;;;;;11.57;4.67;;;15.00;99.90;;;;;;4995496;28;20427;-65
2023/07/18 02:12:19;;;;;;;9.97;4.70;;;15.00;99.90;;;;;;4993144;28;20915;-65
2023/07/18 02:14:45;;;;;;;11.35;4.80;;;15.00;99.90;;;;;;4986049;28;20455;-65
2023/07/18 02:17:10;;;;;;;10.50;4.60;;;15.00;99.90;;;;;;4968870;28;20815;-65
2023/07/18 02:19:36;;;;;;;14.65;5.57;;;14.90;99.90;;;;;;4989768;28;20404;-65
2023/07/18 02:22:03;;;;;;;10.83;4.50;;;14.90;99.90;;;;;;4968998;28;20410;-65
2023/07/18 02:24:28;;;;;;;13.07;4.97;;;14.90;99.90;;;;;;4972152;28;20411;-65
2023/07/18 02:26:54;;;;;;;12.57;5.13;;;15.00;99.90;;;;;;4995464;28;20418;-65
2023/07/18 02:29:20;;;;;;;10.97;4.70;;;14.80;99.90;;;;;;4989163;28;20436;-65
2023/07/18 02:31:46;;;;;;;11.07;4.80;;;14.80;99.90;;;;;;4997988;28;20403;-65
2023/07/18 02:34:12;;;;;;;10.35;4.85;;;14.80;99.90;;;;;;4985681;28;20483;-65
2023/07/18 02:36:38;;;;;;;13.75;5.00;;;14.80;99.90;;;;;;4958881;28;20493;-65
2023/07/18 02:39:07;;;;;;;8.07;4.60;;;14.80;99.90;;;;;;4978380;28;20402;-65
2023/07/18 02:41:39;;;;;;;11.27;4.77;;;14.80;99.90;;;;;;4990534;28;20799;-65
2023/07/18 02:44:05;;;;;;;12.10;4.90;;;14.80;99.90;;;;;;4982205;28;20408;-65
2023/07/18 02:46:31;;;;;;;10.93;4.45;;;14.80;99.90;;;;;;4986067;28;20490;-65
2023/07/18 02:48:56;;;;;;;9.85;4.60;;;14.80;99.90;;;;;;4986558;28;20434;-65
2023/07/18 02:51:22;;;;;;;10.18;4.35;;;14.80;99.90;;;;;;4997297;28;20417;-65
2023/07/18 02:53:51;;;;;;;11.40;4.40;;;14.80;99.90;;;;;;4987145;28;20420;-65
2023/07/18 02:56:17;;;;;;;7.95;4.28;;;14.70;99.90;;;;;;4968468;28;20406;-65
2023/07/18 02:58:43;;;;;;;12.02;5.05;;;14.70;99.90;;;;;;4986075;28;20410;-65
2023/07/18 03:01:08;;;;;;;10.95;4.72;;;14.70;99.90;;;;;;4985847;28;20449;-65
2023/07/18 03:03:40;;;;;;;10.70;4.95;;;14.70;99.90;;;;;;4988938;28;20520;-65
2023/07/18 03:06:07;;;;;;;10.40;5.07;;;14.70;99.90;;;;;;4989245;28;20520;-65
2023/07/18 03:08:34;;;;;;;11.27;5.22;;;15.00;99.90;;;;;;4986634;28;20428;-65
2023/07/18 03:11:06;;;;;;;11.98;5.07;;;14.60;99.90;;;;;;4992961;28;20941;-65
2023/07/18 03:13:31;;;;;;;10.95;5.30;;;14.60;99.90;;;;;;4981913;28;20763;-65
2023/07/18 03:15:57;;;;;;;10.20;4.90;;;14.60;99.90;;;;;;4989288;28;20407;-65
2023/07/18 03:18:23;;;;;;;9.60;4.93;;;14.60;99.90;;;;;;4990002;28;20484;-65
2023/07/18 03:20:49;;;;;;;10.98;5.10;;;14.60;99.90;;;;;;4984791;28;20865;-65
2023/07/18 03:23:15;;;;;;;11.35;5.43;;;14.60;99.90;;;;;;4997579;28;20434;-65
2023/07/18 03:25:41;;;;;;;11.57;4.60;;;14.60;99.90;;;;;;4980916;28;20419;-65
2023/07/18 03:28:08;;;;;;;10.25;4.85;;;14.60;99.90;;;;;;4988798;28;20419;-65
2023/07/18 03:30:33;;;;;;;9.60;4.80;;;14.60;99.90;;;;;;4989179;28;20501;-65
2023/07/18 03:32:59;;;;;;;13.33;5.20;;;14.50;99.90;;;;;;4996541;28;20890;-65
2023/07/18 03:35:25;;;;;;;9.40;5.00;;;14.50;99.90;;;;;;4969175;28;20431;-65
2023/07/18 03:37:50;;;;;;;15.38;5.00;;;14.50;99.90;;;;;;4999002;28;20903;-65
2023/07/18 03:40:16;;;;;;;11.18;5.00;;;14.50;99.90;;;;;;4990297;28;20518;-65
2023/07/18 03:42:43;;;;;;;11.30;4.90;;;14.50;99.90;;;;;;4989031;28;20893;-65
2023/07/18 03:45:10;;;;;;;10.00;4.75;;;14.50;99.90;;;;;;4998325;28;20861;-65
2023/07/18 03:47:37;;;;;;;12.95;5.18;;;14.50;99.90;;;;;;4983668;28;20485;-65
2023/07/18 03:50:03;;;;;;;11.50;4.53;;;14.50;99.90;;;;;;4975885;28;20442;-65
2023/07/18 03:52:28;;;;;;;11.40;5.03;;;14.50;99.90;;;;;;4996606;28;20491;-65
2023/07/18 03:54:54;;;;;;;11.90;5.20;;;14.60;99.90;;;;;;4984614;28;20410;-65
2023/07/18 03:57:20;;;;;;;16.93;5.33;;;14.50;99.90;;;;;;4988603;28;20403;-65
2023/07/18 03:59:46;;;;;;;13.30;5.10;;;14.50;99.90;;;;;;4988926;28;20900;-66
2023/07/18 04:02:14;;;;;;;12.00;4.97;;;14.50;99.90;;;;;;4988770;28;20398;-65
2023/07/18 04:04:41;;;;;;;12.88;4.80;;;14.40;99.90;;;;;;4966705;28;20420;-65
2023/07/18 04:07:07;;;;;;;12.38;4.68;;;14.40;99.90;;;;;;4982570;28;20416;-65
2023/07/18 04:09:33;;;;;;;12.73;4.70;;;14.40;99.90;;;;;;4990401;28;20763;-65
2023/07/18 04:11:59;;;;;;;11.27;4.70;;;14.40;99.90;;;;;;4989356;28;20409;-65
2023/07/18 04:14:24;;;;;;;11.77;4.87;;;14.40;99.90;;;;;;5027211;22;20440;-82
2023/07/18 04:16:51;;;;;;;10.83;4.37;;;14.50;99.90;;;;;;5068751;28;20400;-81
2023/07/18 04:19:16;;;;;;;12.82;5.18;;;14.40;99.90;;;;;;5024664;28;20430;-80
2023/07/18 04:21:42;;;;;;;12.10;4.88;;;14.50;99.90;;;;;;4995667;28;20815;-81
2023/07/18 04:24:08;;;;;;;12.73;4.67;;;14.40;99.90;;;;;;4976881;28;20428;-81
2023/07/18 04:26:34;;;;;;;12.10;4.60;;;14.40;99.90;;;;;;4989082;28;21002;-82
2023/07/18 04:29:00;;;;;;;12.97;4.37;;;14.50;99.90;;;;;;4994106;28;20539;-80
2023/07/18 04:31:26;;;;;;;11.27;4.30;;;14.50;99.90;;;;;;5012567;28;20409;-79
2023/07/18 04:33:51;;;;;;;14.30;4.53;;;14.60;99.90;;;;;;5003492;28;20434;-80
2023/07/18 04:36:17;;;;;;;12.13;4.40;;;14.60;99.90;;;;;;5003128;28;20430;-79
2023/07/18 04:38:43;;;;;;;10.32;4.60;;;14.60;99.90;;;;;;5004927;28;20503;-80
2023/07/18 04:41:08;;;;;;;11.98;4.72;;;14.60;99.90;;;;;;4994063;28;20433;-80
2023/07/18 04:43:34;;;;;;;9.30;4.38;;;14.70;99.90;;;;;;4999621;28;20427;-80
2023/07/18 04:45:59;;;;;;;10.33;4.30;;;14.60;99.90;;;;;;5048064;28;20425;-81
2023/07/18 04:48:25;;;;;;;11.07;4.67;;;14.70;99.90;;;;;;4978901;28;20478;-80
2023/07/18 04:51:01;;;;;;;11.20;4.50;;;14.70;99.90;;;;;;4998807;28;20497;-80
2023/07/18 04:53:28;;;;;;;11.43;4.20;;;14.70;99.90;;;;;;4993808;28;20413;-80
2023/07/18 04:55:55;;;;;;;10.02;3.90;;;14.70;99.90;;;;;;4994105;28;20424;-80
2023/07/18 04:58:22;;;;;;;11.95;4.38;;;14.80;99.90;;;;;;5004256;28;20753;-80
2023/07/18 05:00:47;;;;;;;10.65;4.28;;;14.80;99.90;;;;;;5076831;28;20429;-77
2023/07/18 05:03:13;;;;;;;11.53;3.90;;;14.80;99.90;;;;;;5002746;28;20432;-78
2023/07/18 05:05:39;;;;;;;9.90;4.07;;;14.90;99.90;;;;;;5018936;28;20511;-80
2023/07/18 05:08:05;;;;;;;11.33;4.43;;;14.90;99.90;;;;;;4991140;28;20424;-82
2023/07/18 05:10:31;;;;;;;10.98;4.00;;;14.90;99.90;;;;;;5010092;28;20436;-81
2023/07/18 05:12:57;;;;;;;12.80;4.63;;;14.90;99.90;;;;;;4991735;28;20765;-82
2023/07/18 05:15:23;;;;;;;8.40;3.72;;;15.00;99.90;;;;;;5008359;28;20416;-80
2023/07/18 05:17:49;;;;;;;11.13;4.05;;;15.00;99.90;;;;;;5013033;28;20426;-78
2023/07/18 05:20:15;;;;;;;12.55;3.92;;;15.00;99.90;;;;;;4973287;28;20417;-78
2023/07/18 05:22:43;;;;;;;9.18;3.72;;;15.00;99.90;;;;;;5008562;28;20413;-79
2023/07/18 05:25:11;;;;;;;9.85;3.80;;;15.00;99.90;;;;;;5008340;28;20434;-79
2023/07/18 05:27:37;;;;;;;11.52;3.65;;;15.00;99.90;;;;;;4973573;28;20430;-80
2023/07/18 05:30:09;;;;;;;8.95;4.22;;;15.00;99.90;;;;;;4977154;28;20425;-80
2023/07/18 05:32:35;;;;;;;11.23;3.80;;;15.00;99.90;;;;;;4994405;28;20416;-80
2023/07/18 05:35:01;;;;;;;9.80;3.77;;;15.00;99.90;;;;;;4994988;28;20510;-80
2023/07/18 05:37:28;;;;;;;9.52;4.10;;;15.20;99.90;;;;;;5012171;28;20404;-80
2023/07/18 05:39:54;;;;;;;10.00;4.10;;;15.10;99.90;;;;;;5019842;28;20424;-80
2023/07/18 05:42:20;;;;;;;10.82;4.03;;;15.00;99.90;;;;;;4994203;28;20417;-79
2023/07/18 05:44:45;;;;;;;9.52;3.97;;;15.40;99.90;;;;;;4988803;28;20440;-80
2023/07/18 05:47:11;;;;;;;11.20;4.07;;;15.60;99.90;;;;;;4992912;28;20934;-81
2023/07/18 05:49:37;;;;;;;11.97;3.50;;;15.20;99.90;;;;;;4974687;28;20409;-80
2023/07/18 05:52:03;;;;;;;9.83;4.17;;;15.30;99.90;;;;;;5012101;28;20397;-80
2023/07/18 05:54:30;;;;;;;10.18;3.85;;;15.40;99.90;;;;;;4994014;28;20957;-80
2023/07/18 05:56:58;;;;;;;11.20;3.42;;;15.50;99.90;;;;;;4994617;28;20835;-79
2023/07/18 05:59:25;;;;;;;9.68;3.95;;;15.50;99.90;;;;;;4987760;28;20405;-81
2023/07/18 06:01:50;;;;;;;13.60;4.20;;;15.50;99.90;;;;;;4991249;28;20992;-80
2023/07/18 06:04:16;;;;;;;11.25;4.15;;;15.60;99.90;;;;;;4993288;28;20428;-81
2023/07/18 06:06:43;;;;;;;9.45;3.65;;;15.60;99.90;;;;;;4997367;28;20445;-80
2023/07/18 06:09:09;;;;;;;10.60;3.90;;;15.60;99.90;;;;;;5002975;28;20424;-81
2023/07/18 06:11:35;;;;;;;11.55;3.70;;;15.60;99.90;;;;;;4988521;28;20532;-79
2023/07/18 06:14:01;;;;;;;9.07;3.90;;;15.70;99.90;;;;;;4993026;28;20508;-80
2023/07/18 06:16:27;;;;;;;9.23;3.93;;;16.00;99.90;;;;;;4988860;28;20457;-79
2023/07/18 06:18:54;;;;;;;8.18;3.78;;;15.70;99.90;;;;;;4995726;28;20437;-79
2023/07/18 06:21:20;;;;;;;11.32;3.83;;;15.80;99.90;;;;;;4996903;28;20920;-80
2023/07/18 06:23:46;;;;;;;10.43;3.92;;;16.40;99.90;;;;;;4994288;28;20442;-81
2023/07/18 06:26:11;;;;;;;10.50;3.60;;;16.00;99.90;;;;;;4998993;28;20469;-80
2023/07/18 06:28:37;;;;;;;11.25;3.90;;;16.00;99.90;;;;;;4991221;28;20788;-80
2023/07/18 06:31:02;;;;;;;11.83;3.60;;;16.10;99.90;;;;;;4995262;28;20428;-80
2023/07/18 06:33:29;;;;;;;9.00;3.70;;;16.20;99.90;;;;;;4989656;28;20496;-80
2023/07/18 06:35:56;;;;;;;10.20;3.60;;;16.50;99.90;;;;;;4995697;28;20559;-80
2023/07/18 06:38:22;;;;;;;10.32;3.72;;;16.30;99.90;;;;;;4976550;28;20424;-80
2023/07/18 06:40:50;;;;;;;11.30;3.60;;;16.40;99.90;;;;;;4993517;28;20408;-80
2023/07/18 06:43:16;;;;;;;13.05;3.70;;;16.50;99.90;;;;;;5011653;28;20423;-79
2023/07/18 06:45:46;;;;;;;8.98;3.67;;;16.50;99.90;;;;;;4992604;28;20401;-79
2023/07/18 06:48:12;;;;;;;13.60;3.90;;;16.50;99.90;;;;;;4993490;28;20984;-80
2023/07/18 06:50:45;;;;;;;11.52;3.30;;;16.60;99.90;;;;;;4994327;28;20448;-80
2023/07/18 06:53:10;;;;;;;11.20;3.80;;;16.70;99.90;;;;;;4998848;28;20488;-80
2023/07/18 06:55:36;;;;;;;12.05;3.92;;;16.80;99.90;;;;;;5011146;28;20493;-79
2023/07/18 06:58:01;;;;;;;11.30;4.00;;;16.80;99.90;;;;;;4993167;28;20416;-80
2023/07/18 07:00:27;;;;;;;9.67;3.87;;;16.90;99.90;;;;;;4993854;28;20416;-80
2023/07/18 07:02:53;;;;;;;11.30;3.55;;;16.90;99.90;;;;;;4976675;28;20892;-80
2023/07/18 07:05:19;;;;;;;12.23;3.65;;;16.90;99.90;;;;;;4986633;28;20436;-80
2023/07/18 07:07:45;;;;;;;11.60;3.90;;;17.10;99.90;;;;;;4992597;28;20853;-80
2023/07/18 07:10:11;;;;;;;8.47;3.60;;;17.10;99.90;;;;;;4993681;28;20920;-80
2023/07/18 07:12:38;;;;;;;11.23;3.80;;;17.20;99.90;;;;;;4990913;28;20489;-80
2023/07/18 07:15:04;;;;;;;10.27;3.70;;;17.30;99.90;;;;;;4992696;28;20405;-80
2023/07/18 07:17:30;;;;;;;10.93;3.53;;;17.20;99.90;;;;;;4992544;28;20401;-80
2023/07/18 07:19:57;;;;;;;11.88;3.85;;;17.30;99.90;;;;;;4992702;28;20465;-79
2023/07/18 07:22:22;;;;;;;12.65;4.40;;;17.40;99.90;;;;;;4989139;28;20453;-80
2023/07/18 07:24:48;;;;;;;11.90;4.10;;;17.40;99.90;;;;;;4990760;28;20539;-79
2023/07/18 07:27:13;;;;;;;14.68;3.83;;;17.40;99.90;;;;;;4992615;28;20409;-80
2023/07/18 07:29:42;;;;;;;12.67;3.97;;;17.50;99.90;;;;;;4992314;28;20440;-80
2023/07/18 07:32:11;;;;;;;11.70;4.13;;;17.60;99.90;;;;;;4990302;28;20401;-80
2023/07/18 07:34:37;;;;;;;12.80;4.00;;;17.60;99.90;;;;;;4991904;28;20769;-78
2023/07/18 07:37:02;;;;;;;12.57;3.67;;;17.60;99.90;;;;;;4991171;28;20417;-79
2023/07/18 07:39:28;;;;;;;11.88;3.90;;;17.70;99.90;;;;;;4990231;28;20412;-79
2023/07/18 07:41:54;;;;;;;11.90;4.13;;;17.70;99.90;;;;;;4998196;28;20413;-79
2023/07/18 07:44:19;;;;;;;14.23;4.70;;;17.80;99.90;;;;;;4992045;28;20484;-79
2023/07/18 07:46:45;;;;;;;12.27;4.07;;;17.80;99.90;;;;;;4992115;28;20405;-80
2023/07/18 07:49:11;;;;;;;15.40;4.78;;;18.20;99.90;;;;;;4992084;28;20565;-80
2023/07/18 07:51:37;;;;;;;15.73;5.20;;;18.00;99.90;;;;;;4992064;28;20912;-80
2023/07/18 07:54:02;;;;;;;17.63;4.63;;;18.00;99.90;;;;;;4988688;28;20431;-80
2023/07/18 07:56:28;;;;;;;16.42;5.05;;;18.10;99.90;;;;;;4991407;28;20922;-81
2023/07/18 07:58:53;;;;;;;14.88;4.60;;;18.10;99.90;;;;;;4975856;28;20415;-78
2023/07/18 08:01:20;;;;;;;14.80;4.47;;;18.20;99.90;;;;;;4990871;28;20416;-79
2023/07/18 08:03:45;;;;;;;15.05;4.78;;;18.30;99.90;;;;;;4990380;28;20429;-80
2023/07/18 08:06:11;;;;;;;13.48;4.63;;;18.30;99.90;;;;;;4995525;28;20421;-80
2023/07/18 08:08:37;;;;;;;16.63;4.47;;;18.40;99.90;;;;;;4991153;28;20429;-80
2023/07/18 08:11:03;;;;;;;12.73;4.20;;;18.40;99.90;;;;;;4986705;28;20492;-79
2023/07/18 08:13:29;;;;;;;12.98;4.95;;;18.50;99.90;;;;;;4990862;28;20405;-80
2023/07/18 08:15:55;;;;;;;13.65;3.90;;;18.60;99.90;;;;;;4992917;28;20405;-79
2023/07/18 08:18:21;;;;;;;14.48;4.00;;;19.00;99.90;;;;;;4992297;28;20450;-79
2023/07/18 08:20:47;;;;;;;13.10;4.07;;;18.80;99.90;;;;;;4996723;28;20412;-79
2023/07/18 08:23:14;;;;;;;14.60;4.10;;;18.90;99.90;;;;;;4990614;28;20411;-78
2023/07/18 08:25:43;;;;;;;14.13;4.03;;;18.90;99.90;;;;;;4993096;28;20813;-80
2023/07/18 08:28:10;;;;;;;14.00;4.00;;;19.00;99.90;;;;;;5008385;28;21037;-79
2023/07/18 08:30:38;;;;;;;12.07;3.70;;;19.60;99.90;;;;;;4993961;28;20432;-79
2023/07/18 08:33:04;;;;;;;11.45;3.25;;;19.30;99.90;;;;;;4987341;28;20484;-80
2023/07/18 08:35:29;;;;;;;11.32;3.30;;;19.60;99.90;;;;;;4993364;28;20492;-79
2023/07/18 08:37:55;;;;;;;9.77;3.20;;;19.80;99.90;;;;;;4991896;28;20900;-79
2023/07/18 08:40:21;;;;;;;11.68;2.92;;;20.10;99.90;;;;;;5008986;28;20400;-78
2023/07/18 08:42:48;;;;;;;12.15;3.28;;;20.30;99.90;;;;;;4989368;28;20976;-80
2023/07/18 08:45:15;;;;;;;10.38;3.13;;;20.50;99.90;;;;;;5008548;28;20892;-80
2023/07/18 08:47:43;;;;;;;11.15;3.22;;;20.70;99.90;;;;;;4990158;28;20429;-79
2023/07/18 08:50:10;;;;;;;12.75;3.20;;;20.90;99.90;;;;;;5008897;28;20433;-80
2023/07/18 08:52:36;;;;;;;11.80;3.10;;;21.00;99.90;;;;;;4994968;28;20464;-80
2023/07/18 08:55:04;;;;;;;12.85;3.22;;;21.20;99.90;;;;;;4991066;28;20401;-80
2023/07/18 08:57:30;;;;;;;9.98;2.80;;;21.30;99.90;;;;;;4994805;28;20888;-78
2023/07/18 08:59:59;;;;;;;11.02;2.85;;;21.40;99.90;;;;;;4989849;28;20451;-80
2023/07/18 09:02:24;;;;;;;7.38;2.53;;;21.60;99.90;;;;;;4985866;28;20411;-80
2023/07/18 09:04:50;;;;;;;9.40;2.70;;;21.80;99.90;;;;;;4990953;28;20772;-80
2023/07/18 09:07:19;;;;;;;8.75;2.38;;;21.80;99.90;;;;;;4990846;28;20401;-80
2023/07/18 09:09:48;;;;;;;9.27;2.37;;;22.00;99.90;;;;;;4990819;28;20409;-80
2023/07/18 09:12:15;;;;;;;11.18;2.50;;;22.10;99.90;;;;;;4989811;28;20480;-79
2023/07/18 09:14:41;;;;;;;6.68;2.55;;;22.20;99.90;;;;;;4971701;28;20405;-79
2023/07/18 09:17:07;;;;;;;8.07;2.60;;;22.40;99.10;;;;;;4990592;28;20541;-80
2023/07/18 09:19:48;;;;;;;9.40;2.73;;;22.50;99.10;;;;;;4987434;28;20405;-80
2023/07/18 09:22:17;;;;;;;7.78;2.35;;;22.50;98.40;;;;;;4990564;28;20979;-80
2023/07/18 09:24:43;;;;;;;8.73;2.63;;;22.60;98.10;;;;;;4988319;28;20530;-79
2023/07/18 09:27:17;;;;;;;8.03;2.50;;;22.60;98.20;;;;;;4983850;28;20767;-80
2023/07/18 09:29:49;;;;;;;6.43;2.10;;;22.60;98.40;;;;;;4991278;28;20963;-80
2023/07/18 09:32:17;;;;;;;5.90;2.20;;;22.60;97.90;;;;;;4973165;28;20397;-80
2023/07/18 09:35:00;;;;;;;7.60;2.17;;;22.70;97.10;;;;;;4973498;28;20872;-80
2023/07/18 09:37:26;;;;;;;6.93;2.00;;;22.70;97.10;;;;;;4978741;28;20466;-80
2023/07/18 09:39:54;;;;;;;6.97;2.10;;;22.70;96.80;;;;;;4981586;28;20401;-79
2023/07/18 09:42:21;;;;;;;6.53;2.03;;;22.80;96.20;;;;;;4989538;28;20923;-80
2023/07/18 09:44:49;;;;;;;7.55;2.15;;;22.80;96.40;;;;;;4988935;28;20511;-79
2023/07/18 09:47:15;;;;;;;7.85;2.40;;;22.90;96.20;;;;;;4973318;28;20401;-79
2023/07/18 09:49:42;;;;;;;6.57;2.00;;;22.90;95.80;;;;;;4990360;28;20893;-80
2023/07/18 09:52:09;;;;;;;6.57;1.97;;;23.00;95.10;;;;;;4984818;28;20517;-80
2023/07/18 09:54:39;;;;;;;5.68;2.00;;;23.00;94.50;;;;;;4973906;28;20485;-80
2023/07/18 09:57:08;;;;;;;5.18;1.80;;;23.10;94.10;;;;;;4996232;28;20433;-80
2023/07/18 09:59:38;;;;;;;6.75;2.00;;;23.20;93.30;;;;;;4972573;28;20428;-80
2023/07/18 10:02:06;;;;;;;4.47;1.90;;;23.30;93.50;;;;;;4989688;28;20547;-80
2023/07/18 10:04:35;;;;;;;4.63;1.80;;;23.40;93.60;;;;;;4989397;28;20480;-80
2023/07/18 10:07:02;;;;;;;6.38;1.92;;;23.60;93.10;;;;;;4990039;28;20405;-80
2023/07/18 10:09:28;;;;;;;6.20;1.88;;;23.70;93.00;;;;;;4986146;28;20441;-80
2023/07/18 10:12:03;;;;;;;5.93;2.10;;;23.80;93.50;;;;;;4987195;28;20855;-79
2023/07/18 10:14:50;;;;;;;5.15;1.92;;;24.00;92.30;;;;;;5077213;23;20525;-81
2023/07/18 10:17:37;;;;;;;4.83;1.97;;;24.00;92.20;;;;;;5109491;27;20480;-81
2023/07/18 10:20:34;;;;;;;6.53;2.20;;;24.20;92.10;;;;;;5101031;28;20419;-81
2023/07/18 10:23:40;;;;;;;7.27;2.07;;;24.30;92.20;;;;;;5070203;28;20422;-80
2023/07/18 10:26:07;;;;;;;4.78;1.70;;;24.30;91.50;;;;;;5065212;28;20471;-81
2023/07/18 10:28:48;;;;;;;4.55;1.70;;;24.20;91.00;;;;;;5060274;28;20757;-81
2023/07/18 10:31:53;;;;;;;3.78;1.67;;;24.20;91.10;;;;;;5065190;28;20497;-81
2023/07/18 10:34:55;;;;;;;5.95;1.80;;;24.40;91.10;;;;;;5022852;28;20454;-81
2023/07/18 10:37:36;;;;;;;5.82;1.80;;;24.60;91.50;;;;;;5060981;28;20405;-82
2023/07/18 10:40:39;;;;;;;5.30;1.80;;;24.70;90.40;;;;;;5055952;28;20404;-81
2023/07/18 10:43:29;;;;;;;4.38;1.80;;;24.70;91.40;;;;;;5078375;28;20401;-81
2023/07/18 10:46:06;;;;;;;5.60;1.93;;;24.80;90.20;;;;;;5072286;28;20445;-81
2023/07/18 10:49:14;;;;;;;6.07;2.00;;;24.80;88.90;;;;;;5055047;28;20419;-81
2023/07/18 10:52:23;;;;;;;5.03;2.00;;;24.80;87.10;;;;;;5057912;28;20388;-80
2023/07/18 10:55:23;;;;;;;3.85;1.70;;;24.80;88.40;;;;;;5033861;28;20822;-80
2023/07/18 10:58:39;;;;;;;4.20;1.60;;;24.80;87.10;;;;;;5063187;28;20898;-81
2023/07/18 11:02:08;;;;;;;5.70;1.87;;;24.80;86.00;;;;;;5069956;28;20403;-81
2023/07/18 11:05:16;;;;;;;2.67;1.40;;;25.00;85.90;;;;;;5003044;28;20402;-80
2023/07/18 11:08:02;;;;;;;4.30;1.60;;;25.10;82.10;;;;;;5063120;28;20425;-81
2023/07/18 11:11:04;;;;;;;3.53;1.35;;;25.20;81.60;;;;;;5071466;28;20864;-79
2023/07/18 11:40:21;;;;;;;3.60;1.30;;;26.20;78.40;;;;;;4966510;28;20431;-82
2023/07/18 11:44:25;;;;;;;4.30;1.40;;;26.40;74.70;;;;;;4966619;28;20396;-82
2023/07/18 11:48:28;;;;;;;3.77;1.37;;;26.60;73.90;;;;;;4973141;28;20417;-82
2023/07/18 11:52:32;;;;;;;2.67;1.30;;;26.70;72.10;;;;;;4983204;28;20401;-82
2023/07/18 11:56:14;;;;;;;4.65;1.60;;;26.60;68.80;;;;;;4909172;29;21000;-81
2023/07/18 11:59:35;;;;;;;3.75;1.30;;;26.50;70.50;;;;;;4956571;28;20429;-81
2023/07/18 12:03:05;;;;;;;3.80;1.30;;;26.40;71.50;;;;;;5044164;28;20987;-81
2023/07/18 12:07:08;;;;;;;2.92;1.30;;;26.00;71.00;;;;;;5087500;28;20408;-82
2023/07/18 12:14:21;;;;;;;3.78;1.23;;;25.50;69.40;;;;;;5019811;28;20536;-82
2023/07/18 12:18:22;;;;;;;3.08;1.27;;;25.60;70.90;;;;;;5063479;28;20765;-82
2023/07/18 12:21:20;;;;;;;3.30;1.25;;;26.00;70.90;;;;;;5024013;28;20394;-81
2023/07/18 12:29:03;;;;;;;2.10;1.30;;;26.30;70.40;;;;;;4963913;28;20427;-81
2023/07/18 12:32:44;;;;;;;3.67;1.35;;;26.50;71.10;;;;;;4937642;28;20460;-81
2023/07/18 12:39:37;;;;;;;3.50;1.23;;;26.70;66.40;;;;;;4964626;28;20396;-82
2023/07/18 12:50:24;;;;;;;2.78;1.30;;;26.00;67.10;;;;;;5012617;28;20492;-82
2023/07/18 12:54:21;;;;;;;2.85;1.27;;;25.80;68.50;;;;;;5083429;28;20859;-82
2023/07/18 12:58:11;;;;;;;3.60;1.30;;;25.80;68.80;;;;;;5082696;28;20443;-81
2023/07/18 13:00:44;;;;;;;3.90;1.40;;;26.00;67.40;;;;;;5035981;28;20893;-81
2023/07/18 13:03:13;;;;;;;3.65;1.42;;;26.10;69.30;;;;;;5059382;28;20397;-81
2023/07/18 13:05:46;;;;;;;4.00;1.40;;;26.20;71.40;;;;;;5052643;28;20417;-82
2023/07/18 13:08:14;;;;;;;3.13;1.33;;;26.20;69.70;;;;;;5050726;28;20453;-81
2023/07/18 13:10:49;;;;;;;4.32;1.45;;;26.10;68.50;;;;;;5071644;28;20405;-82
2023/07/18 13:13:17;;;;;;;5.45;1.52;;;26.20;68.90;;;;;;5067243;28;20405;-81
2023/07/18 13:16:05;;;;;;;4.03;1.70;;;26.20;69.30;;;;;;5006656;28;20388;-80
2023/07/18 13:18:36;;;;;;;5.82;1.70;;;26.50;72.00;;;;;;5065640;28;20567;-81
2023/07/18 13:21:16;;;;;;;4.22;1.60;;;26.70;72.20;;;;;;5030005;28;20435;-81
2023/07/18 13:24:02;;;;;;;4.57;1.67;;;26.90;73.50;;;;;;5013283;28;20397;-81
2023/07/18 15:55:01;;;;;;;4.97;1.80;;;26.90;69.30;;;;;;5033974;28;20441;-80
2023/07/18 15:57:54;;;;;;;6.00;1.60;;;26.90;68.60;;;;;;5072012;28;20391;-81
2023/07/18 16:01:29;;;;;;;5.53;1.98;;;26.60;68.50;;;;;;5003787;28;20413;-80
2023/07/18 16:04:11;;;;;;;3.83;1.60;;;26.90;68.90;;;;;;5009743;28;20405;-79
2023/07/18 16:07:00;;;;;;;3.92;1.60;;;26.80;69.10;;;;;;5057336;28;20920;-80
2023/07/18 16:10:05;;;;;;;4.72;1.80;;;26.90;69.30;;;;;;5004269;28;20405;-80
2023/07/18 16:12:35;;;;;;;5.27;1.70;;;27.00;68.90;;;;;;5059823;28;20484;-80
2023/07/18 16:15:03;;;;;;;3.47;1.50;;;27.00;67.20;;;;;;5029825;22;20453;-78
2023/07/18 16:17:29;;;;;;;5.20;1.80;;;27.10;67.10;;;;;;4982139;28;20403;-79
2023/07/18 16:19:56;;;;;;;5.03;1.77;;;27.10;66.80;;;;;;4991526;28;20406;-79
2023/07/18 16:22:22;;;;;;;6.85;2.00;;;27.00;66.90;;;;;;4991376;28;20422;-78
2023/07/18 16:24:48;;;;;;;4.85;1.90;;;26.90;67.30;;;;;;4967616;28;20430;-78